sensor_id;sensor_type;location;lat;lon;timestamp;temperature;humidity
63409;DHT22;49544;50.872;4.348;2022-07-10T00:01:23;18.90;78.40
63409;DHT22;49544;50.872;4.348;2022-07-10T00:03:48;18.80;78.50
63409;DHT22;49544;50.872;4.348;2022-07-10T00:06:17;18.80;78.80
63409;DHT22;49544;50.872;4.348;2022-07-10T00:08:42;18.80;78.70
63409;DHT22;49544;50.872;4.348;2022-07-10T00:11:10;18.90;78.60
63409;DHT22;49544;50.872;4.348;2022-07-10T00:13:36;18.90;78.40
63409;DHT22;49544;50.872;4.348;2022-07-10T00:16:04;18.90;78.30
63409;DHT22;49544;50.872;4.348;2022-07-10T00:18:30;18.90;77.90
63409;DHT22;49544;50.872;4.348;2022-07-10T00:20:56;18.90;78.20
63409;DHT22;49544;50.872;4.348;2022-07-10T00:23:21;18.90;78.20
63409;DHT22;49544;50.872;4.348;2022-07-10T00:25:47;18.80;78.20
63409;DHT22;49544;50.872;4.348;2022-07-10T00:28:15;18.80;78.30
63409;DHT22;49544;50.872;4.348;2022-07-10T00:30:41;18.70;78.60
63409;DHT22;49544;50.872;4.348;2022-07-10T00:33:07;18.60;79.10
63409;DHT22;49544;50.872;4.348;2022-07-10T00:35:32;18.50;79.30
63409;DHT22;49544;50.872;4.348;2022-07-10T00:37:58;18.40;79.40
63409;DHT22;49544;50.872;4.348;2022-07-10T00:40:24;18.40;79.80
63409;DHT22;49544;50.872;4.348;2022-07-10T00:42:49;18.30;79.70
63409;DHT22;49544;50.872;4.348;2022-07-10T00:45:15;18.30;79.70
63409;DHT22;49544;50.872;4.348;2022-07-10T00:47:40;18.30;79.70
63409;DHT22;49544;50.872;4.348;2022-07-10T00:50:06;18.30;79.70
63409;DHT22;49544;50.872;4.348;2022-07-10T00:52:32;18.20;80.10
63409;DHT22;49544;50.872;4.348;2022-07-10T00:55:00;18.20;80.70
63409;DHT22;49544;50.872;4.348;2022-07-10T00:57:26;18.20;80.20
63409;DHT22;49544;50.872;4.348;2022-07-10T00:59:52;18.20;80.10
63409;DHT22;49544;50.872;4.348;2022-07-10T01:02:17;18.20;80.20
63409;DHT22;49544;50.872;4.348;2022-07-10T01:04:43;18.20;80.30
63409;DHT22;49544;50.872;4.348;2022-07-10T01:07:09;18.20;80.00
63409;DHT22;49544;50.872;4.348;2022-07-10T01:09:34;18.30;80.00
63409;DHT22;49544;50.872;4.348;2022-07-10T01:12:00;18.30;79.90
63409;DHT22;49544;50.872;4.348;2022-07-10T01:14:27;18.30;79.70
63409;DHT22;49544;50.872;4.348;2022-07-10T01:16:53;18.30;79.70
63409;DHT22;49544;50.872;4.348;2022-07-10T01:19:19;18.30;79.60
63409;DHT22;49544;50.872;4.348;2022-07-10T01:21:44;18.30;79.60
63409;DHT22;49544;50.872;4.348;2022-07-10T01:24:10;18.30;79.50
63409;DHT22;49544;50.872;4.348;2022-07-10T01:26:36;18.10;79.80
63409;DHT22;49544;50.872;4.348;2022-07-10T01:29:03;18.10;80.10
63409;DHT22;49544;50.872;4.348;2022-07-10T01:31:29;18.10;80.10
63409;DHT22;49544;50.872;4.348;2022-07-10T01:33:58;18.10;80.20
63409;DHT22;49544;50.872;4.348;2022-07-10T01:36:24;18.10;80.40
63409;DHT22;49544;50.872;4.348;2022-07-10T01:38:53;18.20;80.40
63409;DHT22;49544;50.872;4.348;2022-07-10T01:41:19;18.10;80.50
63409;DHT22;49544;50.872;4.348;2022-07-10T01:43:45;18.10;80.40
63409;DHT22;49544;50.872;4.348;2022-07-10T01:46:11;18.00;80.40
63409;DHT22;49544;50.872;4.348;2022-07-10T01:48:40;18.00;80.50
63409;DHT22;49544;50.872;4.348;2022-07-10T01:51:07;17.90;80.60
63409;DHT22;49544;50.872;4.348;2022-07-10T01:53:35;17.90;80.70
63409;DHT22;49544;50.872;4.348;2022-07-10T01:56:03;17.90;80.60
63409;DHT22;49544;50.872;4.348;2022-07-10T01:58:28;18.00;80.60
63409;DHT22;49544;50.872;4.348;2022-07-10T02:00:54;17.90;80.80
63409;DHT22;49544;50.872;4.348;2022-07-10T02:03:20;18.00;80.90
63409;DHT22;49544;50.872;4.348;2022-07-10T02:06:03;18.00;80.80
63409;DHT22;49544;50.872;4.348;2022-07-10T02:08:29;18.00;80.60
63409;DHT22;49544;50.872;4.348;2022-07-10T02:10:54;18.00;80.50
63409;DHT22;49544;50.872;4.348;2022-07-10T02:13:20;17.90;80.80
63409;DHT22;49544;50.872;4.348;2022-07-10T02:15:46;17.90;80.90
63409;DHT22;49544;50.872;4.348;2022-07-10T02:18:12;17.90;80.80
63409;DHT22;49544;50.872;4.348;2022-07-10T02:20:38;17.90;80.70
63409;DHT22;49544;50.872;4.348;2022-07-10T02:23:03;17.90;80.90
63409;DHT22;49544;50.872;4.348;2022-07-10T02:25:29;17.80;80.90
63409;DHT22;49544;50.872;4.348;2022-07-10T02:27:57;17.80;81.00
63409;DHT22;49544;50.872;4.348;2022-07-10T02:30:23;17.90;80.80
63409;DHT22;49544;50.872;4.348;2022-07-10T02:32:48;17.90;80.70
63409;DHT22;49544;50.872;4.348;2022-07-10T02:35:20;17.90;80.80
63409;DHT22;49544;50.872;4.348;2022-07-10T02:37:46;17.90;80.80
63409;DHT22;49544;50.872;4.348;2022-07-10T02:40:12;17.90;80.80
63409;DHT22;49544;50.872;4.348;2022-07-10T02:42:37;17.90;80.80
63409;DHT22;49544;50.872;4.348;2022-07-10T02:45:03;17.90;80.70
63409;DHT22;49544;50.872;4.348;2022-07-10T02:47:29;18.00;80.60
63409;DHT22;49544;50.872;4.348;2022-07-10T02:49:54;18.10;80.40
63409;DHT22;49544;50.872;4.348;2022-07-10T02:52:20;18.00;80.40
63409;DHT22;49544;50.872;4.348;2022-07-10T02:54:45;18.00;80.40
63409;DHT22;49544;50.872;4.348;2022-07-10T02:59:39;18.00;80.40
63409;DHT22;49544;50.872;4.348;2022-07-10T03:02:05;18.00;80.60
63409;DHT22;49544;50.872;4.348;2022-07-10T03:04:31;18.00;80.50
63409;DHT22;49544;50.872;4.348;2022-07-10T03:06:56;18.10;80.50
63409;DHT22;49544;50.872;4.348;2022-07-10T03:09:22;18.10;80.50
63409;DHT22;49544;50.872;4.348;2022-07-10T03:11:47;18.10;80.40
63409;DHT22;49544;50.872;4.348;2022-07-10T03:14:13;18.10;80.40
63409;DHT22;49544;50.872;4.348;2022-07-10T03:16:44;18.10;80.50
63409;DHT22;49544;50.872;4.348;2022-07-10T03:19:10;17.90;81.10
63409;DHT22;49544;50.872;4.348;2022-07-10T03:21:35;17.80;81.70
63409;DHT22;49544;50.872;4.348;2022-07-10T03:24:01;17.70;82.20
63409;DHT22;49544;50.872;4.348;2022-07-10T03:26:26;17.60;82.30
63409;DHT22;49544;50.872;4.348;2022-07-10T03:28:54;17.60;82.50
63409;DHT22;49544;50.872;4.348;2022-07-10T03:31:20;17.60;82.80
63409;DHT22;49544;50.872;4.348;2022-07-10T03:33:46;17.60;82.70
63409;DHT22;49544;50.872;4.348;2022-07-10T03:36:11;17.70;82.60
63409;DHT22;49544;50.872;4.348;2022-07-10T03:38:38;17.70;82.50
63409;DHT22;49544;50.872;4.348;2022-07-10T03:41:04;17.70;82.30
63409;DHT22;49544;50.872;4.348;2022-07-10T03:43:30;17.80;82.20
63409;DHT22;49544;50.872;4.348;2022-07-10T03:45:56;17.80;82.00
63409;DHT22;49544;50.872;4.348;2022-07-10T03:48:21;17.90;81.90
63409;DHT22;49544;50.872;4.348;2022-07-10T03:50:49;18.00;81.70
63409;DHT22;49544;50.872;4.348;2022-07-10T03:53:15;18.00;81.80
63409;DHT22;49544;50.872;4.348;2022-07-10T03:55:40;18.10;81.50
63409;DHT22;49544;50.872;4.348;2022-07-10T03:58:06;18.10;81.30
63409;DHT22;49544;50.872;4.348;2022-07-10T04:00:31;18.10;81.20
63409;DHT22;49544;50.872;4.348;2022-07-10T04:03:04;18.10;81.30
63409;DHT22;49544;50.872;4.348;2022-07-10T04:05:30;18.10;81.20
63409;DHT22;49544;50.872;4.348;2022-07-10T04:07:55;18.20;81.10
63409;DHT22;49544;50.872;4.348;2022-07-10T04:10:24;18.20;81.10
63409;DHT22;49544;50.872;4.348;2022-07-10T04:12:51;18.30;80.80
63409;DHT22;49544;50.872;4.348;2022-07-10T04:15:17;18.40;80.60
63409;DHT22;49544;50.872;4.348;2022-07-10T04:17:42;18.40;80.40
63409;DHT22;49544;50.872;4.348;2022-07-10T04:20:08;18.40;80.80
63409;DHT22;49544;50.872;4.348;2022-07-10T04:22:34;18.40;80.60
63409;DHT22;49544;50.872;4.348;2022-07-10T04:25:02;18.50;80.30
63409;DHT22;49544;50.872;4.348;2022-07-10T04:27:28;18.40;80.30
63409;DHT22;49544;50.872;4.348;2022-07-10T04:29:54;18.30;80.50
63409;DHT22;49544;50.872;4.348;2022-07-10T04:32:20;18.20;80.90
63409;DHT22;49544;50.872;4.348;2022-07-10T04:34:45;18.20;81.20
63409;DHT22;49544;50.872;4.348;2022-07-10T04:37:11;18.30;81.10
63409;DHT22;49544;50.872;4.348;2022-07-10T04:39:37;18.30;80.80
63409;DHT22;49544;50.872;4.348;2022-07-10T04:42:06;18.40;80.80
63409;DHT22;49544;50.872;4.348;2022-07-10T04:44:32;18.30;80.60
63409;DHT22;49544;50.872;4.348;2022-07-10T04:47:01;18.40;80.60
63409;DHT22;49544;50.872;4.348;2022-07-10T04:49:27;18.40;80.80
63409;DHT22;49544;50.872;4.348;2022-07-10T04:51:54;18.30;81.00
63409;DHT22;49544;50.872;4.348;2022-07-10T04:54:19;18.30;81.20
63409;DHT22;49544;50.872;4.348;2022-07-10T04:56:48;18.30;81.10
63409;DHT22;49544;50.872;4.348;2022-07-10T04:59:14;18.40;81.40
63409;DHT22;49544;50.872;4.348;2022-07-10T05:01:39;18.50;80.90
63409;DHT22;49544;50.872;4.348;2022-07-10T05:04:05;18.60;81.00
63409;DHT22;49544;50.872;4.348;2022-07-10T05:06:30;18.60;80.50
63409;DHT22;49544;50.872;4.348;2022-07-10T05:08:56;18.60;80.40
63409;DHT22;49544;50.872;4.348;2022-07-10T05:11:22;18.60;80.20
63409;DHT22;49544;50.872;4.348;2022-07-10T05:13:50;18.60;80.10
63409;DHT22;49544;50.872;4.348;2022-07-10T05:16:16;18.60;80.30
63409;DHT22;49544;50.872;4.348;2022-07-10T05:18:42;18.60;80.20
63409;DHT22;49544;50.872;4.348;2022-07-10T05:21:07;18.70;80.20
63409;DHT22;49544;50.872;4.348;2022-07-10T05:23:33;18.60;80.30
63409;DHT22;49544;50.872;4.348;2022-07-10T05:26:02;18.60;80.70
63409;DHT22;49544;50.872;4.348;2022-07-10T05:28:27;18.60;80.40
63409;DHT22;49544;50.872;4.348;2022-07-10T05:30:53;18.50;80.20
63409;DHT22;49544;50.872;4.348;2022-07-10T05:33:18;18.40;80.70
63409;DHT22;49544;50.872;4.348;2022-07-10T05:35:47;18.20;81.30
63409;DHT22;49544;50.872;4.348;2022-07-10T05:38:13;18.20;81.80
63409;DHT22;49544;50.872;4.348;2022-07-10T05:40:39;18.20;82.20
63409;DHT22;49544;50.872;4.348;2022-07-10T05:43:05;18.10;82.30
63409;DHT22;49544;50.872;4.348;2022-07-10T05:45:30;18.20;82.30
63409;DHT22;49544;50.872;4.348;2022-07-10T05:47:56;18.30;82.40
63409;DHT22;49544;50.872;4.348;2022-07-10T05:50:24;18.30;82.40
63409;DHT22;49544;50.872;4.348;2022-07-10T05:52:50;18.20;83.00
63409;DHT22;49544;50.872;4.348;2022-07-10T05:55:15;18.20;83.40
63409;DHT22;49544;50.872;4.348;2022-07-10T05:57:41;18.30;83.20
63409;DHT22;49544;50.872;4.348;2022-07-10T06:00:07;18.20;83.70
63409;DHT22;49544;50.872;4.348;2022-07-10T06:02:33;18.20;83.90
63409;DHT22;49544;50.872;4.348;2022-07-10T06:04:58;18.20;83.80
63409;DHT22;49544;50.872;4.348;2022-07-10T06:07:25;18.10;84.40
63409;DHT22;49544;50.872;4.348;2022-07-10T06:09:50;18.10;84.70
63409;DHT22;49544;50.872;4.348;2022-07-10T06:12:16;18.00;84.90
63409;DHT22;49544;50.872;4.348;2022-07-10T06:14:45;17.90;85.30
63409;DHT22;49544;50.872;4.348;2022-07-10T06:17:13;18.00;85.60
63409;DHT22;49544;50.872;4.348;2022-07-10T06:19:38;18.10;85.20
63409;DHT22;49544;50.872;4.348;2022-07-10T06:22:04;18.20;85.10
63409;DHT22;49544;50.872;4.348;2022-07-10T06:24:48;18.10;85.20
63409;DHT22;49544;50.872;4.348;2022-07-10T06:27:14;18.20;84.90
63409;DHT22;49544;50.872;4.348;2022-07-10T06:29:40;18.30;84.90
63409;DHT22;49544;50.872;4.348;2022-07-10T06:32:06;18.40;84.50
63409;DHT22;49544;50.872;4.348;2022-07-10T06:34:31;18.30;84.90
63409;DHT22;49544;50.872;4.348;2022-07-10T06:36:57;18.40;84.70
63409;DHT22;49544;50.872;4.348;2022-07-10T06:39:23;18.50;84.60
63409;DHT22;49544;50.872;4.348;2022-07-10T06:41:48;18.60;84.20
63409;DHT22;49544;50.872;4.348;2022-07-10T06:44:14;18.70;83.80
63409;DHT22;49544;50.872;4.348;2022-07-10T06:46:39;18.70;83.90
63409;DHT22;49544;50.872;4.348;2022-07-10T06:49:05;18.80;83.70
63409;DHT22;49544;50.872;4.348;2022-07-10T06:51:31;18.90;83.30
63409;DHT22;49544;50.872;4.348;2022-07-10T06:53:57;18.90;83.20
63409;DHT22;49544;50.872;4.348;2022-07-10T06:56:22;18.80;83.40
63409;DHT22;49544;50.872;4.348;2022-07-10T06:58:48;18.90;83.50
63409;DHT22;49544;50.872;4.348;2022-07-10T07:01:14;18.80;83.70
63409;DHT22;49544;50.872;4.348;2022-07-10T07:03:39;18.80;83.90
63409;DHT22;49544;50.872;4.348;2022-07-10T07:06:07;18.80;83.70
63409;DHT22;49544;50.872;4.348;2022-07-10T07:08:35;18.80;84.20
63409;DHT22;49544;50.872;4.348;2022-07-10T07:11:02;18.80;83.40
63409;DHT22;49544;50.872;4.348;2022-07-10T07:13:27;18.80;83.90
63409;DHT22;49544;50.872;4.348;2022-07-10T07:15:55;18.80;84.00
63409;DHT22;49544;50.872;4.348;2022-07-10T07:18:25;18.70;84.30
63409;DHT22;49544;50.872;4.348;2022-07-10T07:20:58;18.70;84.50
63409;DHT22;49544;50.872;4.348;2022-07-10T07:23:42;18.70;84.80
63409;DHT22;49544;50.872;4.348;2022-07-10T07:26:10;18.70;85.10
63409;DHT22;49544;50.872;4.348;2022-07-10T07:28:36;18.70;85.00
63409;DHT22;49544;50.872;4.348;2022-07-10T07:31:02;18.80;84.90
63409;DHT22;49544;50.872;4.348;2022-07-10T07:33:28;18.70;85.30
63409;DHT22;49544;50.872;4.348;2022-07-10T07:35:56;18.70;85.10
63409;DHT22;49544;50.872;4.348;2022-07-10T07:38:25;18.80;85.20
63409;DHT22;49544;50.872;4.348;2022-07-10T07:40:51;18.80;84.30
63409;DHT22;49544;50.872;4.348;2022-07-10T07:43:20;18.80;84.70
63409;DHT22;49544;50.872;4.348;2022-07-10T07:45:45;18.70;84.40
63409;DHT22;49544;50.872;4.348;2022-07-10T07:48:11;18.70;85.10
63409;DHT22;49544;50.872;4.348;2022-07-10T07:50:36;18.70;85.00
63409;DHT22;49544;50.872;4.348;2022-07-10T07:53:04;18.80;84.80
63409;DHT22;49544;50.872;4.348;2022-07-10T07:55:30;18.90;84.60
63409;DHT22;49544;50.872;4.348;2022-07-10T07:57:59;18.90;84.60
63409;DHT22;49544;50.872;4.348;2022-07-10T08:00:26;19.00;85.10
63409;DHT22;49544;50.872;4.348;2022-07-10T08:02:52;19.10;82.70
63409;DHT22;49544;50.872;4.348;2022-07-10T08:05:18;19.00;82.90
63409;DHT22;49544;50.872;4.348;2022-07-10T08:07:49;19.10;82.60
63409;DHT22;49544;50.872;4.348;2022-07-10T08:10:15;19.10;82.20
63409;DHT22;49544;50.872;4.348;2022-07-10T08:12:41;19.10;82.80
63409;DHT22;49544;50.872;4.348;2022-07-10T08:15:07;19.10;82.70
63409;DHT22;49544;50.872;4.348;2022-07-10T08:17:33;19.30;82.70
63409;DHT22;49544;50.872;4.348;2022-07-10T08:19:59;19.40;82.10
63409;DHT22;49544;50.872;4.348;2022-07-10T08:22:24;19.40;82.10
63409;DHT22;49544;50.872;4.348;2022-07-10T08:24:50;19.50;82.30
63409;DHT22;49544;50.872;4.348;2022-07-10T08:27:19;19.60;82.00
63409;DHT22;49544;50.872;4.348;2022-07-10T08:29:44;19.70;81.60
63409;DHT22;49544;50.872;4.348;2022-07-10T08:32:10;19.70;81.40
63409;DHT22;49544;50.872;4.348;2022-07-10T08:34:36;19.80;81.50
63409;DHT22;49544;50.872;4.348;2022-07-10T08:37:02;19.90;80.90
63409;DHT22;49544;50.872;4.348;2022-07-10T08:39:28;19.90;80.70
63409;DHT22;49544;50.872;4.348;2022-07-10T08:41:53;19.90;80.30
63409;DHT22;49544;50.872;4.348;2022-07-10T08:44:19;19.90;80.40
63409;DHT22;49544;50.872;4.348;2022-07-10T08:46:45;20.00;80.90
63409;DHT22;49544;50.872;4.348;2022-07-10T08:49:10;20.10;80.50
63409;DHT22;49544;50.872;4.348;2022-07-10T08:52:03;20.20;80.20
63409;DHT22;49544;50.872;4.348;2022-07-10T08:54:32;20.20;79.80
63409;DHT22;49544;50.872;4.348;2022-07-10T08:56:59;20.00;80.20
63409;DHT22;49544;50.872;4.348;2022-07-10T08:59:24;20.00;80.30
63409;DHT22;49544;50.872;4.348;2022-07-10T09:01:50;20.10;80.10
63409;DHT22;49544;50.872;4.348;2022-07-10T09:04:20;20.20;80.00
63409;DHT22;49544;50.872;4.348;2022-07-10T09:06:45;20.40;79.50
63409;DHT22;49544;50.872;4.348;2022-07-10T09:09:11;20.50;78.70
63409;DHT22;49544;50.872;4.348;2022-07-10T09:11:42;20.50;78.00
63409;DHT22;49544;50.872;4.348;2022-07-10T09:14:13;20.40;78.70
63409;DHT22;49544;50.872;4.348;2022-07-10T09:16:40;20.40;78.50
63409;DHT22;49544;50.872;4.348;2022-07-10T09:19:15;20.30;79.30
63409;DHT22;49544;50.872;4.348;2022-07-10T09:21:41;20.20;80.20
63409;DHT22;49544;50.872;4.348;2022-07-10T09:24:09;20.30;78.30
63409;DHT22;49544;50.872;4.348;2022-07-10T09:26:37;20.40;77.70
63409;DHT22;49544;50.872;4.348;2022-07-10T09:29:08;20.50;78.40
63409;DHT22;49544;50.872;4.348;2022-07-10T09:31:55;20.50;78.50
63409;DHT22;49544;50.872;4.348;2022-07-10T09:34:34;20.70;78.20
63409;DHT22;49544;50.872;4.348;2022-07-10T09:37:17;20.90;77.50
63409;DHT22;49544;50.872;4.348;2022-07-10T09:40:02;20.90;77.10
63409;DHT22;49544;50.872;4.348;2022-07-10T09:42:33;21.00;76.80
63409;DHT22;49544;50.872;4.348;2022-07-10T09:52:46;21.20;76.30
63409;DHT22;49544;50.872;4.348;2022-07-10T09:55:13;21.10;77.20
63409;DHT22;49544;50.872;4.348;2022-07-10T09:57:39;21.20;77.00
63409;DHT22;49544;50.872;4.348;2022-07-10T10:00:06;21.30;76.40
63409;DHT22;49544;50.872;4.348;2022-07-10T10:02:33;21.30;76.30
63409;DHT22;49544;50.872;4.348;2022-07-10T10:05:05;21.30;76.60
63409;DHT22;49544;50.872;4.348;2022-07-10T10:07:38;21.40;76.90
63409;DHT22;49544;50.872;4.348;2022-07-10T10:10:11;21.50;77.10
63409;DHT22;49544;50.872;4.348;2022-07-10T10:12:45;21.70;74.90
63409;DHT22;49544;50.872;4.348;2022-07-10T10:15:13;21.70;74.10
63409;DHT22;49544;50.872;4.348;2022-07-10T10:17:45;21.60;74.80
63409;DHT22;49544;50.872;4.348;2022-07-10T10:20:24;21.60;75.50
63409;DHT22;49544;50.872;4.348;2022-07-10T10:23:18;21.60;75.70
63409;DHT22;49544;50.872;4.348;2022-07-10T10:25:48;21.60;75.90
63409;DHT22;49544;50.872;4.348;2022-07-10T10:28:16;21.50;76.10
63409;DHT22;49544;50.872;4.348;2022-07-10T10:30:57;21.70;75.80
63409;DHT22;49544;50.872;4.348;2022-07-10T10:36:03;21.70;75.10
63409;DHT22;49544;50.872;4.348;2022-07-10T10:41:29;21.80;75.00
63409;DHT22;49544;50.872;4.348;2022-07-10T10:46:32;21.80;75.10
63409;DHT22;49544;50.872;4.348;2022-07-10T10:49:04;21.80;75.10
63409;DHT22;49544;50.872;4.348;2022-07-10T10:54:14;21.70;75.30
63409;DHT22;49544;50.872;4.348;2022-07-10T10:56:42;21.50;75.70
63409;DHT22;49544;50.872;4.348;2022-07-10T10:59:39;21.50;76.10
63409;DHT22;49544;50.872;4.348;2022-07-10T11:04:46;21.60;76.30
63409;DHT22;49544;50.872;4.348;2022-07-10T11:07:50;21.70;76.20
63409;DHT22;49544;50.872;4.348;2022-07-10T11:15:22;22.00;74.70
63409;DHT22;49544;50.872;4.348;2022-07-10T11:17:53;22.00;75.20
63409;DHT22;49544;50.872;4.348;2022-07-10T11:20:21;22.10;74.80
63409;DHT22;49544;50.872;4.348;2022-07-10T11:28:17;22.30;73.70
63409;DHT22;49544;50.872;4.348;2022-07-10T11:33:18;22.30;74.20
63409;DHT22;49544;50.872;4.348;2022-07-10T11:35:51;22.40;73.10
63409;DHT22;49544;50.872;4.348;2022-07-10T11:38:23;22.50;72.80
63409;DHT22;49544;50.872;4.348;2022-07-10T11:40:52;22.70;73.00
63409;DHT22;49544;50.872;4.348;2022-07-10T11:43:23;22.60;72.90
63409;DHT22;49544;50.872;4.348;2022-07-10T11:45:54;22.60;72.90
63409;DHT22;49544;50.872;4.348;2022-07-10T11:48:28;22.70;72.80
63409;DHT22;49544;50.872;4.348;2022-07-10T11:50:59;22.50;73.00
63409;DHT22;49544;50.872;4.348;2022-07-10T11:53:32;22.50;73.40
63409;DHT22;49544;50.872;4.348;2022-07-10T11:56:00;22.50;72.50
63409;DHT22;49544;50.872;4.348;2022-07-10T11:58:28;22.60;72.40
63409;DHT22;49544;50.872;4.348;2022-07-10T12:00:57;22.60;72.20
63409;DHT22;49544;50.872;4.348;2022-07-10T12:03:26;22.70;72.20
63409;DHT22;49544;50.872;4.348;2022-07-10T12:05:52;22.80;72.00
63409;DHT22;49544;50.872;4.348;2022-07-10T12:08:21;22.80;72.10
63409;DHT22;49544;50.872;4.348;2022-07-10T12:10:50;22.80;72.40
63409;DHT22;49544;50.872;4.348;2022-07-10T12:13:26;22.80;72.40
63409;DHT22;49544;50.872;4.348;2022-07-10T12:15:55;22.90;72.10
63409;DHT22;49544;50.872;4.348;2022-07-10T12:18:26;22.90;71.80
63409;DHT22;49544;50.872;4.348;2022-07-10T12:20:56;22.90;71.40
63409;DHT22;49544;50.872;4.348;2022-07-10T12:23:25;23.00;71.20
63409;DHT22;49544;50.872;4.348;2022-07-10T12:25:53;23.10;71.90
63409;DHT22;49544;50.872;4.348;2022-07-10T12:28:21;23.30;71.00
63409;DHT22;49544;50.872;4.348;2022-07-10T12:30:48;23.40;70.60
63409;DHT22;49544;50.872;4.348;2022-07-10T12:33:20;23.40;70.60
63409;DHT22;49544;50.872;4.348;2022-07-10T12:38:20;23.30;70.80
63409;DHT22;49544;50.872;4.348;2022-07-10T12:40:49;23.20;70.30
63409;DHT22;49544;50.872;4.348;2022-07-10T12:43:27;23.20;70.40
63409;DHT22;49544;50.872;4.348;2022-07-10T12:48:41;22.90;71.00
63409;DHT22;49544;50.872;4.348;2022-07-10T12:51:23;23.00;70.90
63409;DHT22;49544;50.872;4.348;2022-07-10T12:53:51;23.00;70.60
63409;DHT22;49544;50.872;4.348;2022-07-10T12:56:55;23.00;70.90
63409;DHT22;49544;50.872;4.348;2022-07-10T12:59:14;23.00;71.00
63409;DHT22;49544;50.872;4.348;2022-07-10T13:01:49;23.20;71.00
63409;DHT22;49544;50.872;4.348;2022-07-10T13:04:29;23.30;71.20
63409;DHT22;49544;50.872;4.348;2022-07-10T13:07:11;23.30;70.40
63409;DHT22;49544;50.872;4.348;2022-07-10T13:09:43;23.30;70.70
63409;DHT22;49544;50.872;4.348;2022-07-10T13:12:15;23.30;70.60
63409;DHT22;49544;50.872;4.348;2022-07-10T13:14:47;23.30;70.50
63409;DHT22;49544;50.872;4.348;2022-07-10T13:17:15;23.30;70.50
63409;DHT22;49544;50.872;4.348;2022-07-10T13:19:43;23.40;70.40
63409;DHT22;49544;50.872;4.348;2022-07-10T13:22:14;23.50;70.50
63409;DHT22;49544;50.872;4.348;2022-07-10T13:24:46;23.40;70.40
63409;DHT22;49544;50.872;4.348;2022-07-10T13:27:14;23.40;70.60
63409;DHT22;49544;50.872;4.348;2022-07-10T13:29:43;23.30;70.50
63409;DHT22;49544;50.872;4.348;2022-07-10T13:32:12;23.20;70.20
63409;DHT22;49544;50.872;4.348;2022-07-10T13:34:43;23.20;70.80
63409;DHT22;49544;50.872;4.348;2022-07-10T13:37:11;23.30;70.60
63409;DHT22;49544;50.872;4.348;2022-07-10T13:39:44;23.40;70.40
63409;DHT22;49544;50.872;4.348;2022-07-10T13:42:16;23.50;69.60
63409;DHT22;49544;50.872;4.348;2022-07-10T13:44:49;23.60;69.20
63409;DHT22;49544;50.872;4.348;2022-07-10T13:47:18;23.80;68.90
63409;DHT22;49544;50.872;4.348;2022-07-10T13:49:48;23.70;68.80
63409;DHT22;49544;50.872;4.348;2022-07-10T13:52:22;23.80;69.30
63409;DHT22;49544;50.872;4.348;2022-07-10T13:54:47;23.80;69.60
63409;DHT22;49544;50.872;4.348;2022-07-10T13:57:19;23.80;70.10
63409;DHT22;49544;50.872;4.348;2022-07-10T13:59:44;23.80;69.90
63409;DHT22;49544;50.872;4.348;2022-07-10T14:02:11;23.80;69.10
63409;DHT22;49544;50.872;4.348;2022-07-10T14:04:37;23.80;69.50
63409;DHT22;49544;50.872;4.348;2022-07-10T14:07:03;23.80;68.80
63409;DHT22;49544;50.872;4.348;2022-07-10T14:09:29;23.80;68.60
63409;DHT22;49544;50.872;4.348;2022-07-10T14:11:57;23.70;68.50
63409;DHT22;49544;50.872;4.348;2022-07-10T14:14:23;23.80;68.60
63409;DHT22;49544;50.872;4.348;2022-07-10T14:16:51;23.90;68.60
63409;DHT22;49544;50.872;4.348;2022-07-10T14:19:17;24.20;68.20
63409;DHT22;49544;50.872;4.348;2022-07-10T14:21:46;24.10;67.40
63409;DHT22;49544;50.872;4.348;2022-07-10T14:24:12;24.10;67.20
63409;DHT22;49544;50.872;4.348;2022-07-10T14:26:38;24.00;67.70
63409;DHT22;49544;50.872;4.348;2022-07-10T14:29:06;24.00;68.00
63409;DHT22;49544;50.872;4.348;2022-07-10T14:31:34;24.00;68.30
63409;DHT22;49544;50.872;4.348;2022-07-10T14:34:00;24.10;68.30
63409;DHT22;49544;50.872;4.348;2022-07-10T14:36:25;24.10;68.40
63409;DHT22;49544;50.872;4.348;2022-07-10T14:38:54;24.10;68.20
63409;DHT22;49544;50.872;4.348;2022-07-10T14:41:20;24.00;68.60
63409;DHT22;49544;50.872;4.348;2022-07-10T14:43:48;24.10;68.20
63409;DHT22;49544;50.872;4.348;2022-07-10T14:46:17;24.10;67.80
63409;DHT22;49544;50.872;4.348;2022-07-10T14:48:42;24.30;67.60
63409;DHT22;49544;50.872;4.348;2022-07-10T14:51:08;24.20;67.50
63409;DHT22;49544;50.872;4.348;2022-07-10T14:53:34;24.20;67.70
63409;DHT22;49544;50.872;4.348;2022-07-10T14:56:04;24.30;67.60
63409;DHT22;49544;50.872;4.348;2022-07-10T14:58:30;24.30;67.60
63409;DHT22;49544;50.872;4.348;2022-07-10T15:00:55;24.20;68.30
63409;DHT22;49544;50.872;4.348;2022-07-10T15:03:21;24.30;68.10
63409;DHT22;49544;50.872;4.348;2022-07-10T15:05:50;24.30;67.30
63409;DHT22;49544;50.872;4.348;2022-07-10T15:08:22;24.40;67.20
63409;DHT22;49544;50.872;4.348;2022-07-10T15:10:47;24.20;66.60
63409;DHT22;49544;50.872;4.348;2022-07-10T15:13:13;24.20;65.80
63409;DHT22;49544;50.872;4.348;2022-07-10T15:15:39;24.10;65.80
63409;DHT22;49544;50.872;4.348;2022-07-10T15:18:07;24.00;65.70
63409;DHT22;49544;50.872;4.348;2022-07-10T15:20:33;24.00;66.10
63409;DHT22;49544;50.872;4.348;2022-07-10T15:22:59;24.00;66.00
63409;DHT22;49544;50.872;4.348;2022-07-10T15:25:24;23.90;66.80
63409;DHT22;49544;50.872;4.348;2022-07-10T15:27:53;23.90;67.20
63409;DHT22;49544;50.872;4.348;2022-07-10T15:30:19;24.00;67.00
63409;DHT22;49544;50.872;4.348;2022-07-10T15:32:45;24.10;66.40
63409;DHT22;49544;50.872;4.348;2022-07-10T15:35:11;24.20;66.70
63409;DHT22;49544;50.872;4.348;2022-07-10T15:37:37;24.30;66.40
63409;DHT22;49544;50.872;4.348;2022-07-10T15:40:03;24.50;66.60
63409;DHT22;49544;50.872;4.348;2022-07-10T15:42:31;24.50;66.40
63409;DHT22;49544;50.872;4.348;2022-07-10T15:44:57;24.60;66.30
63409;DHT22;49544;50.872;4.348;2022-07-10T15:47:25;24.60;66.40
63409;DHT22;49544;50.872;4.348;2022-07-10T15:49:53;24.50;66.30
63409;DHT22;49544;50.872;4.348;2022-07-10T15:52:19;24.50;66.80
63409;DHT22;49544;50.872;4.348;2022-07-10T15:54:44;24.40;66.40
63409;DHT22;49544;50.872;4.348;2022-07-10T15:57:10;24.40;66.50
63409;DHT22;49544;50.872;4.348;2022-07-10T15:59:37;24.40;66.70
63409;DHT22;49544;50.872;4.348;2022-07-10T16:02:08;24.40;66.30
63409;DHT22;49544;50.872;4.348;2022-07-10T16:04:36;24.50;66.20
63409;DHT22;49544;50.872;4.348;2022-07-10T16:07:03;24.60;65.80
63409;DHT22;49544;50.872;4.348;2022-07-10T16:09:29;24.60;65.50
63409;DHT22;49544;50.872;4.348;2022-07-10T16:11:54;24.70;65.40
63409;DHT22;49544;50.872;4.348;2022-07-10T16:14:20;24.80;65.20
63409;DHT22;49544;50.872;4.348;2022-07-10T16:16:45;24.80;65.20